createdAt,value
2022-09-18T00:01:41.635Z,13.48
2022-09-18T00:04:16.544Z,13.40
2022-09-18T00:06:45.737Z,13.40
2022-09-18T00:09:15.931Z,13.40
2022-09-18T00:11:48.779Z,13.40
2022-09-18T00:14:21.680Z,13.40
2022-09-18T00:16:50.501Z,13.40
2022-09-18T00:19:19.650Z,13.40
2022-09-18T00:21:51.610Z,13.40
2022-09-18T00:24:23.401Z,13.40
2022-09-18T00:26:51.240Z,13.40
2022-09-18T00:29:19.254Z,13.40
2022-09-18T00:31:47.003Z,13.40
2022-09-18T00:34:16.546Z,13.40
2022-09-18T00:36:44.532Z,13.40
2022-09-18T00:39:12.849Z,13.36
2022-09-18T00:41:43.079Z,13.30
2022-09-18T00:44:42.017Z,13.30
2022-09-18T00:47:09.722Z,13.30
2022-09-18T00:49:51.897Z,13.30
2022-09-18T00:52:26.613Z,13.20
2022-09-18T00:55:02.818Z,13.20
2022-09-18T00:57:35.095Z,13.20
2022-09-18T01:00:12.813Z,13.20
2022-09-18T01:02:45.506Z,13.14
2022-09-18T01:05:26.768Z,13.10
2022-09-18T01:08:27.938Z,13.10
2022-09-18T01:11:18.047Z,13.10
2022-09-18T01:14:00.949Z,13.10
2022-09-18T01:17:02.981Z,13.06
2022-09-18T01:20:01.608Z,13.00
2022-09-18T01:23:19.276Z,13.00
2022-09-18T01:26:17.657Z,13.00
2022-09-18T01:29:29.373Z,13.00
2022-09-18T01:32:06.191Z,13.00
2022-09-18T01:34:54.785Z,12.96
2022-09-18T01:37:55.898Z,12.90
2022-09-18T01:40:42.952Z,12.80
2022-09-18T01:43:19.550Z,12.80
2022-09-18T01:45:56.448Z,12.80
2022-09-18T01:48:41.809Z,12.80
2022-09-18T01:51:25.914Z,12.70
2022-09-18T01:54:08.197Z,12.70
2022-09-18T01:56:45.202Z,12.68
2022-09-18T01:59:23.790Z,12.64
2022-09-18T02:01:55.620Z,12.60
2022-09-18T02:04:30.014Z,12.60
2022-09-18T02:07:25.175Z,12.58
2022-09-18T02:09:53.040Z,12.50
2022-09-18T02:12:26.476Z,12.50
2022-09-18T02:15:00.302Z,12.50
2022-09-18T02:17:36.639Z,12.50
2022-09-18T02:20:13.914Z,12.50
2022-09-18T02:22:45.489Z,12.50
2022-09-18T02:25:19.981Z,12.40
2022-09-18T02:27:51.657Z,12.40
2022-09-18T02:30:20.616Z,12.40
2022-09-18T02:32:53.122Z,12.40
2022-09-18T02:35:23.252Z,12.30
2022-09-18T02:38:09.800Z,12.30
2022-09-18T02:40:58.813Z,12.30
2022-09-18T02:44:02.827Z,12.26
2022-09-18T02:47:22.515Z,12.20
2022-09-18T02:50:29.414Z,12.20
2022-09-18T02:53:04.054Z,12.18
2022-09-18T02:55:47.144Z,12.10
2022-09-18T02:58:26.741Z,12.10
2022-09-18T03:00:59.005Z,12.10
2022-09-18T03:03:31.236Z,12.10
2022-09-18T03:05:59.674Z,12.00
2022-09-18T03:08:27.372Z,12.00
2022-09-18T03:10:55.141Z,12.00
2022-09-18T03:13:23.945Z,12.00
2022-09-18T03:15:52.326Z,11.90
2022-09-18T03:18:20.134Z,11.98
2022-09-18T03:20:48.123Z,11.96
2022-09-18T03:23:16.134Z,11.90
2022-09-18T03:25:43.913Z,11.90
2022-09-18T03:28:11.593Z,11.90
2022-09-18T03:30:39.991Z,11.90
2022-09-18T03:33:08.380Z,11.90
2022-09-18T03:35:36.158Z,11.90
2022-09-18T03:38:04.182Z,11.96
2022-09-18T03:40:34.374Z,11.98
2022-09-18T03:43:02.320Z,12.00
2022-09-18T03:45:30.006Z,12.00
2022-09-18T03:47:57.953Z,12.00
2022-09-18T03:50:28.870Z,11.94
2022-09-18T03:52:56.678Z,11.90
2022-09-18T03:55:25.117Z,11.90
2022-09-18T03:57:53.507Z,11.90
2022-09-18T04:00:22.479Z,11.90
2022-09-18T04:02:50.278Z,11.80
2022-09-18T04:05:18.376Z,11.80
2022-09-18T04:07:46.052Z,11.80
2022-09-18T04:10:14.392Z,11.80
2022-09-18T04:12:45.618Z,11.70
2022-09-18T04:15:14.653Z,11.72
2022-09-18T04:17:43.389Z,11.80
2022-09-18T04:20:11.845Z,11.72
2022-09-18T04:22:39.480Z,11.70
2022-09-18T04:25:07.927Z,11.70
2022-09-18T04:27:36.712Z,11.68
2022-09-18T04:30:07.101Z,11.60
2022-09-18T04:32:36.078Z,11.60
2022-09-18T04:35:05.512Z,11.60
2022-09-18T04:37:33.257Z,11.58
2022-09-18T04:40:04.007Z,11.52
2022-09-18T04:42:32.604Z,11.50
2022-09-18T04:45:00.344Z,11.50
2022-09-18T04:47:28.191Z,11.50
2022-09-18T04:49:56.060Z,11.50
2022-09-18T04:52:23.785Z,11.50
2022-09-18T04:54:51.487Z,11.42
2022-09-18T04:57:19.255Z,11.40
2022-09-18T04:59:47.120Z,11.40
2022-09-18T05:02:14.875Z,11.40
2022-09-18T05:04:42.857Z,11.34
2022-09-18T05:07:10.873Z,11.30
2022-09-18T05:09:38.625Z,11.30
2022-09-18T05:12:07.095Z,11.30
2022-09-18T05:14:36.832Z,11.30
2022-09-18T05:17:04.689Z,11.30
2022-09-18T05:19:32.544Z,11.28
2022-09-18T05:22:00.252Z,11.30
2022-09-18T05:24:27.897Z,11.30
2022-09-18T05:26:55.613Z,11.40
2022-09-18T05:29:23.284Z,11.40
2022-09-18T05:31:51.075Z,11.42
2022-09-18T05:34:19.279Z,11.50
2022-09-18T05:36:47.089Z,11.50
2022-09-18T05:39:17.573Z,11.50
2022-09-18T05:41:50.929Z,11.48
2022-09-18T05:44:20.072Z,11.48
2022-09-18T05:46:48.612Z,11.48
2022-09-18T05:49:17.062Z,11.50
2022-09-18T05:51:46.372Z,11.40
2022-09-18T05:54:15.037Z,11.40
2022-09-18T05:56:43.952Z,11.40
2022-09-18T05:59:11.593Z,11.40
2022-09-18T06:01:41.673Z,11.40
2022-09-18T06:04:13.970Z,11.30
2022-09-18T06:06:42.244Z,11.30
2022-09-18T06:09:10.065Z,11.30
2022-09-18T06:11:38.198Z,11.30
2022-09-18T06:14:06.069Z,11.30
2022-09-18T06:16:36.457Z,11.30
2022-09-18T06:19:06.587Z,11.30
2022-09-18T06:21:34.725Z,11.38
2022-09-18T06:24:03.941Z,11.40
2022-09-18T06:26:31.887Z,11.50
2022-09-18T06:28:59.796Z,11.50
2022-09-18T06:31:27.736Z,11.54
2022-09-18T06:33:55.682Z,11.54
2022-09-18T06:36:24.150Z,11.54
2022-09-18T06:38:52.151Z,11.60
2022-09-18T06:41:20.274Z,11.60
2022-09-18T06:43:50.341Z,11.62
2022-09-18T06:46:18.358Z,11.70
2022-09-18T06:48:49.499Z,11.70
2022-09-18T06:51:19.324Z,11.70
2022-09-18T06:53:47.013Z,11.72
2022-09-18T06:56:16.171Z,11.80
2022-09-18T06:58:44.093Z,11.80
2022-09-18T07:01:11.907Z,11.80
2022-09-18T07:03:39.773Z,11.90
2022-09-18T07:06:10.540Z,11.90
2022-09-18T07:08:38.532Z,12.00
2022-09-18T07:11:06.534Z,12.06
2022-09-18T07:13:37.539Z,12.16
2022-09-18T07:16:06.132Z,12.20
2022-09-18T07:18:34.752Z,12.34
2022-09-18T07:21:02.425Z,12.40
2022-09-18T07:23:33.006Z,12.50
2022-09-18T07:26:02.208Z,12.50
2022-09-18T07:28:30.470Z,12.50
2022-09-18T07:31:06.402Z,12.60
2022-09-18T07:33:35.405Z,12.64
2022-09-18T07:36:05.665Z,12.70
2022-09-18T07:38:34.572Z,12.80
2022-09-18T07:41:03.891Z,12.90
2022-09-18T07:43:32.300Z,13.00
2022-09-18T07:46:00.903Z,13.00
2022-09-18T07:48:29.790Z,13.06
2022-09-18T07:50:58.840Z,13.10
2022-09-18T07:53:27.367Z,13.10
2022-09-18T07:55:55.951Z,13.20
2022-09-18T07:58:24.440Z,13.26
2022-09-18T08:00:52.184Z,13.30
2022-09-18T08:03:19.918Z,13.36
2022-09-18T08:05:47.825Z,13.40
2022-09-18T08:08:16.124Z,13.50
2022-09-18T08:10:45.231Z,13.60
2022-09-18T08:13:14.612Z,13.70
2022-09-18T08:15:43.729Z,13.78
2022-09-18T08:18:12.202Z,13.90
2022-09-18T08:20:41.619Z,13.90
2022-09-18T08:23:11.425Z,13.90
2022-09-18T08:25:39.309Z,13.98
2022-09-18T08:28:07.981Z,14.06
2022-09-18T08:30:36.447Z,14.20
2022-09-18T08:33:09.352Z,14.20
2022-09-18T08:35:37.451Z,14.30
2022-09-18T08:38:06.699Z,14.40
2022-09-18T08:41:04.883Z,14.50
2022-09-18T08:44:02.090Z,14.62
2022-09-18T08:47:10.636Z,14.76
2022-09-18T08:50:06.563Z,14.86
2022-09-18T08:52:42.565Z,15.00
2022-09-18T08:55:31.118Z,15.00
2022-09-18T08:58:18.829Z,15.10
2022-09-18T09:00:51.319Z,15.10
2022-09-18T09:03:51.741Z,15.20
2022-09-18T09:06:50.067Z,15.22
2022-09-18T09:09:57.731Z,15.30
2022-09-18T09:12:55.304Z,15.30
2022-09-18T09:15:43.557Z,15.40
2022-09-18T09:18:17.057Z,15.40
2022-09-18T09:20:54.779Z,15.42
2022-09-18T09:23:59.889Z,15.50
2022-09-18T09:26:28.391Z,15.50
2022-09-18T09:29:03.979Z,15.60
2022-09-18T09:31:43.313Z,15.60
2022-09-18T09:34:20.929Z,15.60
2022-09-18T09:36:54.316Z,15.60
2022-09-18T09:39:34.888Z,15.60
2022-09-18T09:42:56.834Z,15.62
2022-09-18T09:45:46.989Z,15.80
2022-09-18T09:48:52.320Z,15.80
2022-09-18T09:51:51.380Z,15.70
2022-09-18T09:54:20.243Z,15.60
2022-09-18T09:56:58.499Z,15.52
2022-09-18T09:59:53.127Z,15.50
2022-09-18T10:03:00.245Z,15.58
2022-09-18T10:05:53.909Z,15.60
2022-09-18T10:08:39.699Z,15.70
2022-09-18T10:11:11.465Z,15.90
2022-09-18T10:13:50.093Z,16.00
2022-09-18T10:16:42.828Z,16.20
2022-09-18T10:19:17.900Z,16.30
2022-09-18T10:21:49.382Z,16.50
2022-09-18T10:24:44.480Z,16.50
2022-09-18T10:27:15.214Z,16.58
2022-09-18T10:29:44.185Z,16.60
2022-09-18T10:32:12.953Z,16.68
2022-09-18T10:34:47.684Z,16.70
2022-09-18T10:37:40.404Z,16.70
2022-09-18T10:40:46.066Z,16.70
2022-09-18T10:43:18.982Z,16.80
2022-09-18T10:45:54.573Z,16.78
2022-09-18T10:48:26.724Z,16.90
2022-09-18T10:50:56.381Z,17.00
2022-09-18T10:53:39.423Z,17.02
2022-09-18T10:56:21.551Z,17.12
2022-09-18T10:58:50.643Z,17.20
2022-09-18T11:01:19.961Z,17.38
2022-09-18T11:04:14.349Z,17.50
2022-09-18T11:06:46.462Z,17.60
2022-09-18T11:09:22.060Z,17.70
2022-09-18T11:11:51.524Z,17.70
2022-09-18T11:14:29.443Z,17.80
2022-09-18T11:17:01.625Z,17.84
2022-09-18T11:19:36.359Z,17.90
2022-09-18T11:22:26.952Z,17.96
2022-09-18T11:25:19.661Z,18.00
2022-09-18T11:27:57.744Z,18.00
2022-09-18T11:30:28.040Z,18.10
2022-09-18T11:33:35.073Z,18.20
2022-09-18T11:36:10.170Z,18.22
2022-09-18T11:38:44.820Z,18.30
2022-09-18T11:41:21.460Z,18.30
2022-09-18T11:44:12.800Z,18.20
2022-09-18T11:47:23.246Z,18.02
2022-09-18T11:50:21.499Z,18.20
2022-09-18T11:53:00.457Z,18.20
2022-09-18T11:55:46.865Z,18.30
2022-09-18T11:58:24.467Z,18.40
2022-09-18T12:01:18.122Z,18.60
2022-09-18T12:04:01.088Z,18.80
2022-09-18T12:06:46.584Z,18.90
2022-09-18T12:09:40.543Z,18.90
2022-09-18T12:12:31.688Z,18.90
2022-09-18T12:15:12.181Z,18.92
2022-09-18T12:17:54.734Z,19.00
2022-09-18T12:20:36.358Z,19.00
2022-09-18T12:23:04.896Z,19.00
2022-09-18T12:26:14.041Z,19.06
2022-09-18T12:29:23.603Z,19.20
2022-09-18T12:32:28.280Z,19.30
2022-09-18T12:35:26.758Z,19.20
2022-09-18T12:38:14.639Z,19.00
2022-09-18T12:41:25.235Z,18.86
2022-09-18T12:44:15.467Z,18.60
2022-09-18T12:47:20.169Z,18.54
2022-09-18T12:50:48.368Z,18.50
2022-09-18T12:53:49.191Z,18.40
2022-09-18T12:56:36.735Z,18.46
2022-09-18T12:59:36.760Z,18.50
2022-09-18T13:02:51.291Z,18.70
2022-09-18T13:05:25.848Z,18.90
2022-09-18T13:08:23.543Z,18.90
2022-09-18T13:11:02.267Z,19.10
2022-09-18T13:13:53.629Z,19.06
2022-09-18T13:16:45.495Z,18.90
2022-09-18T13:19:38.677Z,18.70
2022-09-18T13:22:17.201Z,18.50
2022-09-18T13:24:58.812Z,18.40
2022-09-18T13:27:28.041Z,18.30
2022-09-18T13:29:59.907Z,18.20
2022-09-18T13:32:35.137Z,18.00
2022-09-18T13:35:32.594Z,18.00
2022-09-18T13:38:20.076Z,18.00
2022-09-18T13:41:02.778Z,17.90
2022-09-18T13:44:05.831Z,17.90
2022-09-18T13:46:44.304Z,17.90
2022-09-18T13:49:20.313Z,17.90
2022-09-18T13:51:48.944Z,17.90
2022-09-18T13:54:26.157Z,18.00
2022-09-18T13:57:15.125Z,18.06
2022-09-18T13:59:59.043Z,18.10
2022-09-18T14:02:38.744Z,18.10
2022-09-18T14:05:34.321Z,18.08
2022-09-18T14:08:20.948Z,18.10
2022-09-18T14:11:17.245Z,18.00
2022-09-18T14:13:52.450Z,17.90
2022-09-18T14:16:20.729Z,17.80
2022-09-18T14:18:48.313Z,17.70
2022-09-18T14:21:26.890Z,17.70
2022-09-18T14:24:44.505Z,17.70
2022-09-18T14:27:40.849Z,17.80
2022-09-18T14:30:21.293Z,17.80
2022-09-18T14:33:09.775Z,17.80
2022-09-18T14:35:59.134Z,17.90
2022-09-18T14:38:36.647Z,17.90
2022-09-18T14:41:34.787Z,17.80
2022-09-18T14:44:06.331Z,17.70
2022-09-18T14:46:34.365Z,17.70
2022-09-18T14:49:03.245Z,17.70
2022-09-18T14:51:44.824Z,17.70
2022-09-18T14:54:23.443Z,17.70
2022-09-18T14:56:58.086Z,17.60
2022-09-18T14:59:28.963Z,17.60
2022-09-18T15:02:33.319Z,17.70
2022-09-18T15:05:10.226Z,17.88
2022-09-18T15:07:40.104Z,17.90
2022-09-18T15:10:10.087Z,18.00
2022-09-18T15:12:39.835Z,18.10
2022-09-18T15:15:34.382Z,18.20
2022-09-18T15:18:03.614Z,18.40
2022-09-18T15:20:31.912Z,18.50
2022-09-18T15:22:59.706Z,18.60
2022-09-18T15:25:33.984Z,18.70
2022-09-18T15:28:07.236Z,18.90
2022-09-18T15:30:40.435Z,18.96
2022-09-18T15:33:21.725Z,19.06
2022-09-18T15:35:53.564Z,19.20
2022-09-18T15:38:29.967Z,19.30
2022-09-18T15:40:57.685Z,19.30
2022-09-18T15:43:33.872Z,19.22
2022-09-18T15:46:11.043Z,19.20
2022-09-18T15:48:48.394Z,19.20
2022-09-18T15:51:22.652Z,19.20
2022-09-18T15:54:13.400Z,19.10
2022-09-18T15:56:57.389Z,19.20
2022-09-18T15:59:40.887Z,19.20
2022-09-18T16:03:22.553Z,19.10
2022-09-18T16:05:58.130Z,18.90
2022-09-18T16:08:31.413Z,18.90
2022-09-18T16:11:00.890Z,18.94
2022-09-18T16:13:36.430Z,19.00
2022-09-18T16:16:13.244Z,19.00
2022-09-18T16:19:38.238Z,19.00
2022-09-18T16:22:47.345Z,19.00
2022-09-18T16:25:28.622Z,19.00
2022-09-18T16:27:59.531Z,19.10
2022-09-18T16:30:29.793Z,19.10
2022-09-18T16:33:21.303Z,19.00
2022-09-18T16:39:23.890Z,18.90
2022-09-18T16:41:52.612Z,18.80
2022-09-18T16:47:09.845Z,18.60
2022-09-18T16:49:44.304Z,18.46
2022-09-18T16:52:13.957Z,18.30
2022-09-18T16:54:41.814Z,18.20
2022-09-18T16:57:15.213Z,18.10
2022-09-18T17:02:39.020Z,17.90
2022-09-18T17:05:07.611Z,17.80
2022-09-18T17:07:38.491Z,17.76
2022-09-18T17:10:07.099Z,17.60
2022-09-18T17:12:37.297Z,17.56
2022-09-18T17:15:11.613Z,17.50
2022-09-18T17:17:39.408Z,17.48
2022-09-18T17:20:09.009Z,17.40
2022-09-18T17:22:36.749Z,17.22
2022-09-18T17:25:05.495Z,17.10
2022-09-18T17:27:43.557Z,17.06
2022-09-18T17:30:31.223Z,17.00
2022-09-18T17:35:50.846Z,16.70
2022-09-18T17:38:20.325Z,16.60
2022-09-18T17:41:00.613Z,16.50
2022-09-18T17:43:30.081Z,16.50
2022-09-18T17:46:03.460Z,16.40
2022-09-18T17:48:32.476Z,16.28
2022-09-18T17:51:07.088Z,16.02
2022-09-18T17:53:34.823Z,15.88
2022-09-18T17:56:03.375Z,15.80
2022-09-18T17:58:33.592Z,15.70
2022-09-18T18:01:10.912Z,15.64
2022-09-18T18:03:39.472Z,15.50
2022-09-18T18:06:07.902Z,15.40
2022-09-18T18:13:06.954Z,15.16
2022-09-18T18:15:53.624Z,15.08
2022-09-18T18:25:38.157Z,14.80
2022-09-18T18:28:23.739Z,14.80
2022-09-18T18:31:07.653Z,14.70
2022-09-18T18:33:36.961Z,14.62
2022-09-18T18:36:18.792Z,14.60
2022-09-18T18:38:50.431Z,14.50
2022-09-18T18:41:21.734Z,14.32
2022-09-18T18:43:56.367Z,14.20
2022-09-18T18:46:27.879Z,14.10
2022-09-18T18:49:03.115Z,13.98
2022-09-18T18:51:36.156Z,13.90
2022-09-18T18:54:06.076Z,13.76
2022-09-18T18:56:52.254Z,13.60
2022-09-18T18:59:25.760Z,13.50
2022-09-18T19:02:00.187Z,13.48
2022-09-18T19:04:30.184Z,13.40
2022-09-18T19:06:58.998Z,13.40
2022-09-18T19:09:29.919Z,13.40
2022-09-18T19:11:58.504Z,13.30
2022-09-18T19:14:31.405Z,13.20
2022-09-18T19:17:00.274Z,13.20
2022-09-18T19:19:29.372Z,13.08
2022-09-18T19:22:00.902Z,13.00
2022-09-18T19:24:30.136Z,12.90
2022-09-18T19:26:59.118Z,12.82
2022-09-18T19:29:28.289Z,12.80
2022-09-18T19:31:59.408Z,12.60
2022-09-18T19:34:29.543Z,12.60
2022-09-18T19:36:58.039Z,12.50
2022-09-18T19:39:27.056Z,12.50
2022-09-18T19:42:03.296Z,12.50
2022-09-18T19:44:52.092Z,12.40
2022-09-18T19:47:44.874Z,12.30
2022-09-18T19:50:26.387Z,12.30
2022-09-18T19:52:55.631Z,12.40
2022-09-18T19:55:23.754Z,12.50
2022-09-18T19:57:59.523Z,12.60
2022-09-18T20:00:27.649Z,12.70
2022-09-18T20:03:00.043Z,12.70
2022-09-18T20:05:27.889Z,12.80
2022-09-18T20:07:55.730Z,12.90
2022-09-18T20:10:24.518Z,13.00
2022-09-18T20:12:52.898Z,13.10
2022-09-18T20:15:20.901Z,13.10
2022-09-18T20:17:48.895Z,13.10
2022-09-18T20:20:16.873Z,13.20
2022-09-18T20:22:44.627Z,13.30
2022-09-18T20:25:12.647Z,13.40
2022-09-18T20:27:42.170Z,13.50
2022-09-18T20:30:12.719Z,13.40
2022-09-18T20:32:41.226Z,13.40
2022-09-18T20:35:10.158Z,13.40
2022-09-18T20:37:38.078Z,13.38
2022-09-18T20:40:12.902Z,13.30
2022-09-18T20:42:41.236Z,13.20
2022-09-18T20:45:09.991Z,13.20
2022-09-18T20:47:38.086Z,13.20
2022-09-18T20:50:09.857Z,13.20
2022-09-18T20:52:43.074Z,13.20
2022-09-18T20:55:17.495Z,13.10
2022-09-18T20:57:46.378Z,13.00
2022-09-18T21:00:17.150Z,12.90
2022-09-18T21:02:52.917Z,12.80
2022-09-18T21:05:20.996Z,12.70
2022-09-18T21:07:57.374Z,12.62
2022-09-18T21:10:25.076Z,12.52
2022-09-18T21:12:54.052Z,12.50
2022-09-18T21:15:21.808Z,12.50
2022-09-18T21:17:52.344Z,12.40
2022-09-18T21:20:21.240Z,12.40
2022-09-18T21:23:08.116Z,12.36
2022-09-18T21:25:36.199Z,12.40
2022-09-18T21:28:06.038Z,12.36
2022-09-18T21:30:34.007Z,12.30
2022-09-18T21:33:01.863Z,12.20
2022-09-18T21:35:29.567Z,12.30
2022-09-18T21:37:58.051Z,12.30
2022-09-18T21:40:25.812Z,12.30
2022-09-18T21:42:55.042Z,12.22
2022-09-18T21:45:23.529Z,12.20
2022-09-18T21:47:51.289Z,12.10
2022-09-18T21:50:22.481Z,12.10
2022-09-18T21:52:50.226Z,12.00
2022-09-18T21:55:20.557Z,11.90
2022-09-18T21:57:48.278Z,11.80
2022-09-18T22:00:16.126Z,11.70
2022-09-18T22:02:43.868Z,11.66
2022-09-18T22:05:14.079Z,11.60
2022-09-18T22:07:43.297Z,11.52
2022-09-18T22:10:11.053Z,11.50
2022-09-18T22:12:41.295Z,11.50
2022-09-18T22:15:10.379Z,11.50
2022-09-18T22:17:41.620Z,11.40
2022-09-18T22:20:09.966Z,11.40
2022-09-18T22:22:38.258Z,11.40
2022-09-18T22:25:06.423Z,11.30
2022-09-18T22:27:34.417Z,11.30
2022-09-18T22:30:02.468Z,11.20
2022-09-18T22:32:30.289Z,11.20
2022-09-18T22:34:58.028Z,11.30
2022-09-18T22:37:26.033Z,11.30
2022-09-18T22:39:53.795Z,11.40
2022-09-18T22:42:22.003Z,11.40
2022-09-18T22:44:49.804Z,11.40
2022-09-18T22:47:17.590Z,11.30
2022-09-18T22:49:45.282Z,11.22
2022-09-18T22:52:13.159Z,11.20
2022-09-18T22:54:40.915Z,11.22
2022-09-18T22:57:08.844Z,11.20
2022-09-18T22:59:38.239Z,11.10
2022-09-18T23:02:07.597Z,11.00
2022-09-18T23:04:36.380Z,10.90
2022-09-18T23:07:04.583Z,10.90
2022-09-18T23:09:32.379Z,10.90
2022-09-18T23:12:00.511Z,10.86
2022-09-18T23:14:31.589Z,10.90
2022-09-18T23:17:01.173Z,10.90
2022-09-18T23:19:33.850Z,11.00
2022-09-18T23:22:02.264Z,11.00
2022-09-18T23:24:31.665Z,11.00
2022-09-18T23:26:59.858Z,11.00
2022-09-18T23:29:29.076Z,11.00
2022-09-18T23:32:00.164Z,11.00
2022-09-18T23:34:32.208Z,11.00
2022-09-18T23:37:01.303Z,11.10
2022-09-18T23:39:34.687Z,11.10
2022-09-18T23:42:05.963Z,11.10
2022-09-18T23:44:34.562Z,11.10
2022-09-18T23:47:02.932Z,11.10
2022-09-18T23:49:31.475Z,11.18
2022-09-18T23:52:00.527Z,11.20
2022-09-18T23:54:31.554Z,11.20
2022-09-18T23:56:59.629Z,11.20
2022-09-18T23:59:27.820Z,11.10
